createdAt,value
2019-01-26T00:00:01.180Z,-2.36
2019-01-26T00:01:05.150Z,-2.36
2019-01-26T00:02:01.155Z,-2.35
2019-01-26T00:03:01.146Z,-2.29
2019-01-26T00:04:04.827Z,-2.40
2019-01-26T00:05:01.128Z,-2.36
2019-01-26T00:06:01.131Z,-2.33
2019-01-26T00:07:01.103Z,-2.35
2019-01-26T00:08:01.101Z,-2.33
2019-01-26T00:09:02.713Z,-2.38
2019-01-26T00:10:01.070Z,-2.38
2019-01-26T00:11:02.393Z,-2.35
2019-01-26T00:12:01.063Z,-2.32
2019-01-26T00:13:01.037Z,-2.35
2019-01-26T00:14:01.074Z,-2.28
2019-01-26T00:15:01.030Z,-2.35
2019-01-26T00:16:01.010Z,-2.32
2019-01-26T00:17:01.005Z,-2.32
2019-01-26T00:18:01.001Z,-2.26
2019-01-26T00:19:02.282Z,-2.33
2019-01-26T00:20:00.971Z,-2.28
2019-01-26T00:21:00.971Z,-2.17
2019-01-26T00:22:00.958Z,-2.21
2019-01-26T00:23:00.939Z,-2.14
2019-01-26T00:24:00.974Z,-2.18
2019-01-26T00:25:01.746Z,-2.20
2019-01-26T00:26:00.911Z,-2.16
2019-01-26T00:27:00.902Z,-2.20
2019-01-26T00:28:00.896Z,-2.08
2019-01-26T00:29:00.888Z,-2.08
2019-01-26T00:30:01.402Z,-2.10
2019-01-26T00:31:00.866Z,-2.14
2019-01-26T00:32:00.852Z,-2.11
2019-01-26T00:33:00.851Z,-2.13
2019-01-26T00:34:00.832Z,-2.13
2019-01-26T00:35:00.829Z,-2.13
2019-01-26T00:36:01.886Z,-2.14
2019-01-26T00:37:00.801Z,-2.10
2019-01-26T00:38:00.790Z,-2.03
2019-01-26T00:39:00.791Z,-2.13
2019-01-26T00:40:00.811Z,-2.11
2019-01-26T00:41:00.772Z,-2.05
2019-01-26T00:42:00.772Z,-1.99
2019-01-26T00:43:00.737Z,-2.08
2019-01-26T00:44:00.731Z,-2.10
2019-01-26T00:45:03.639Z,-2.00
2019-01-26T00:46:00.710Z,-2.00
2019-01-26T00:47:00.711Z,-2.00
2019-01-26T00:48:00.691Z,-2.00
2019-01-26T00:49:00.674Z,-1.93
2019-01-26T00:50:00.899Z,-1.92
2019-01-26T00:51:00.656Z,-2.00
2019-01-26T00:52:00.650Z,-1.95
2019-01-26T00:53:00.634Z,-1.90
2019-01-26T00:54:00.639Z,-2.00
2019-01-26T00:55:03.147Z,-1.96
2019-01-26T00:56:00.620Z,-1.93
2019-01-26T00:57:00.597Z,-1.93
2019-01-26T00:58:00.589Z,-1.87
2019-01-26T00:59:00.669Z,-1.98
2019-01-26T01:00:00.602Z,-1.93
2019-01-26T01:01:00.561Z,-1.93
2019-01-26T01:02:00.547Z,-1.90
2019-01-26T01:03:00.547Z,-1.92
2019-01-26T01:04:00.527Z,-1.92
2019-01-26T01:05:00.542Z,-1.87
2019-01-26T01:06:00.513Z,-1.87
2019-01-26T01:07:00.493Z,-1.95
2019-01-26T01:08:00.492Z,-1.87
2019-01-26T01:09:00.476Z,-1.93
2019-01-26T01:10:00.497Z,-1.88
2019-01-26T01:11:00.460Z,-1.88
2019-01-26T01:12:00.451Z,-1.90
2019-01-26T01:13:00.438Z,-1.93
2019-01-26T01:14:00.428Z,-1.78
2019-01-26T01:15:01.869Z,-1.90
2019-01-26T01:16:00.416Z,-1.85
2019-01-26T01:17:00.404Z,-1.85
2019-01-26T01:18:00.393Z,-1.92
2019-01-26T01:19:00.469Z,-1.84
2019-01-26T01:20:01.068Z,-1.85
2019-01-26T01:21:01.844Z,-1.87
2019-01-26T01:22:00.345Z,-1.85
2019-01-26T01:23:02.694Z,-1.87
2019-01-26T01:24:00.329Z,-1.85
2019-01-26T01:25:00.347Z,-1.78
2019-01-26T01:26:00.304Z,-1.78
2019-01-26T01:27:00.298Z,-1.70
2019-01-26T01:28:00.287Z,-1.64
2019-01-26T01:29:00.329Z,-1.72
2019-01-26T01:30:00.276Z,-1.72
2019-01-26T01:31:00.255Z,-1.72
2019-01-26T01:32:00.249Z,-1.67
2019-01-26T01:33:00.233Z,-1.54
2019-01-26T01:34:00.412Z,-1.70
2019-01-26T01:35:00.207Z,-1.69
2019-01-26T01:36:00.207Z,-1.63
2019-01-26T01:37:00.257Z,-1.59
2019-01-26T01:38:00.181Z,-1.57
2019-01-26T01:39:03.677Z,-1.57
2019-01-26T01:40:00.228Z,-1.56
2019-01-26T01:41:00.156Z,-1.54
2019-01-26T01:42:00.152Z,-1.56
2019-01-26T01:43:00.149Z,-1.62
2019-01-26T01:44:00.194Z,-1.57
2019-01-26T01:45:00.846Z,-1.51
2019-01-26T01:46:00.158Z,-1.45
2019-01-26T01:47:00.841Z,-1.59
2019-01-26T01:48:00.096Z,-1.53
2019-01-26T01:49:00.078Z,-1.56
2019-01-26T01:50:00.400Z,-1.51
2019-01-26T01:51:01.805Z,-1.46
2019-01-26T01:52:00.056Z,-1.48
2019-01-26T01:53:00.038Z,-1.45
2019-01-26T01:54:00.052Z,-1.48
2019-01-26T01:55:00.016Z,-1.36
2019-01-26T01:56:00.012Z,-1.51
2019-01-26T01:57:00.003Z,-1.39
2019-01-26T01:57:59.994Z,-1.30
2019-01-26T01:59:00.007Z,-1.38
2019-01-26T01:59:59.959Z,-1.31
2019-01-26T02:00:59.953Z,-1.31
2019-01-26T02:01:59.944Z,-1.36
2019-01-26T02:02:59.987Z,-1.38
2019-01-26T02:03:59.926Z,-1.33
2019-01-26T02:04:59.913Z,-1.33
2019-01-26T02:05:59.909Z,-1.33
2019-01-26T02:06:59.890Z,-1.28
2019-01-26T02:07:59.885Z,-1.24
2019-01-26T02:08:59.904Z,-1.33
2019-01-26T02:09:59.866Z,-1.30
2019-01-26T02:10:59.850Z,-1.30
2019-01-26T02:11:59.850Z,-1.23
2019-01-26T02:12:59.830Z,-1.24
2019-01-26T02:13:59.874Z,-1.15
2019-01-26T02:14:59.816Z,-1.17
2019-01-26T02:15:59.811Z,-1.20
2019-01-26T02:16:59.820Z,-1.20
2019-01-26T02:17:59.791Z,-1.15
2019-01-26T02:18:59.769Z,-1.21
2019-01-26T02:19:59.763Z,-1.18
2019-01-26T02:20:59.751Z,-1.21
2019-01-26T02:21:59.777Z,-1.13
2019-01-26T02:22:59.736Z,-1.20
2019-01-26T02:23:59.725Z,-1.15
2019-01-26T02:24:59.712Z,-1.06
2019-01-26T02:25:59.808Z,-1.10
2019-01-26T02:26:59.733Z,-1.13
2019-01-26T02:27:59.686Z,-1.12
2019-01-26T02:28:59.672Z,-1.06
2019-01-26T02:29:59.666Z,-1.09
2019-01-26T02:30:59.655Z,-1.03
2019-01-26T02:31:59.669Z,-1.07
2019-01-26T02:32:59.640Z,-1.09
2019-01-26T02:34:00.344Z,-1.10
2019-01-26T02:34:59.605Z,-1.02
2019-01-26T02:35:59.605Z,-1.00
2019-01-26T02:36:59.625Z,-1.05
2019-01-26T02:37:59.582Z,-1.05
2019-01-26T02:38:59.580Z,-1.03
2019-01-26T02:39:59.561Z,-1.10
2019-01-26T02:40:59.552Z,-1.09
2019-01-26T02:41:59.566Z,-1.13
2019-01-26T02:42:59.526Z,-1.05
2019-01-26T02:43:59.519Z,-1.06
2019-01-26T02:44:59.508Z,-1.06
2019-01-26T02:45:59.499Z,-1.06
2019-01-26T02:46:59.619Z,-1.07
2019-01-26T02:47:59.486Z,-1.09
2019-01-26T02:48:59.466Z,-1.06
2019-01-26T02:49:59.460Z,-1.09
2019-01-26T02:50:59.452Z,-1.03
2019-01-26T02:51:59.467Z,-1.10
2019-01-26T02:52:59.438Z,-1.09
2019-01-26T02:53:59.423Z,-1.03
2019-01-26T02:54:59.410Z,-1.03
2019-01-26T02:55:59.394Z,-1.10
2019-01-26T02:56:59.415Z,-1.09
2019-01-26T02:57:59.390Z,-1.12
2019-01-26T02:58:59.372Z,-1.06
2019-01-26T02:59:59.353Z,-1.13
2019-01-26T03:00:59.358Z,-1.03
2019-01-26T03:01:59.370Z,-1.07
2019-01-26T03:02:59.327Z,-1.07
2019-01-26T03:03:59.316Z,-1.09
2019-01-26T03:04:59.315Z,-1.09
2019-01-26T03:05:59.300Z,-1.12
2019-01-26T03:06:59.313Z,-1.09
2019-01-26T03:07:59.276Z,-1.06
2019-01-26T03:08:59.264Z,-1.13
2019-01-26T03:09:59.261Z,-1.10
2019-01-26T03:10:59.392Z,-1.05
2019-01-26T03:11:59.600Z,-1.02
2019-01-26T03:12:59.485Z,-1.10
2019-01-26T03:13:59.462Z,-1.07
2019-01-26T03:14:59.434Z,-1.06
2019-01-26T03:15:59.449Z,-1.07
2019-01-26T03:17:05.856Z,-1.03
2019-01-26T03:18:00.444Z,-1.05
2019-01-26T03:18:59.364Z,-1.06
2019-01-26T03:19:59.333Z,-1.12
2019-01-26T03:20:59.334Z,-1.07
2019-01-26T03:21:59.291Z,-1.10
2019-01-26T03:22:59.535Z,-1.20
2019-01-26T03:23:59.290Z,-1.18
2019-01-26T03:24:59.309Z,-1.15
2019-01-26T03:25:59.294Z,-1.25
2019-01-26T03:26:59.255Z,-1.13
2019-01-26T03:27:59.519Z,-1.18
2019-01-26T03:28:59.281Z,-1.21
2019-01-26T03:29:59.242Z,-1.13
2019-01-26T03:30:59.202Z,-1.28
2019-01-26T03:31:59.400Z,-1.30
2019-01-26T03:32:59.528Z,-1.30
2019-01-26T03:33:59.265Z,-1.36
2019-01-26T03:34:59.198Z,-1.31
2019-01-26T03:35:59.375Z,-1.38
2019-01-26T03:36:59.173Z,-1.39
2019-01-26T03:37:59.201Z,-1.39
2019-01-26T03:38:59.159Z,-1.36
2019-01-26T03:39:59.367Z,-1.41
2019-01-26T03:40:59.157Z,-1.36
2019-01-26T03:41:59.128Z,-1.43
2019-01-26T03:42:59.335Z,-1.42
2019-01-26T03:43:59.118Z,-1.43
2019-01-26T03:44:59.114Z,-1.46
2019-01-26T03:45:59.159Z,-1.45
2019-01-26T03:46:59.140Z,-1.49
2019-01-26T03:48:01.092Z,-1.48
2019-01-26T03:48:59.075Z,-1.49
2019-01-26T03:49:59.078Z,-1.59
2019-01-26T03:50:59.056Z,-1.56
2019-01-26T03:51:59.062Z,-1.56
2019-01-26T03:52:59.262Z,-1.64
2019-01-26T03:53:59.000Z,-1.60
2019-01-26T03:54:58.983Z,-1.60
2019-01-26T03:55:59.041Z,-1.77
2019-01-26T03:56:58.914Z,-1.74
2019-01-26T03:57:59.171Z,-1.72
2019-01-26T03:58:58.959Z,-1.69
2019-01-26T03:59:58.923Z,-1.74
2019-01-26T04:00:58.960Z,-1.64
2019-01-26T04:01:58.924Z,-1.69
2019-01-26T04:02:59.051Z,-1.72
2019-01-26T04:03:58.911Z,-1.60
2019-01-26T04:04:58.882Z,-1.62
2019-01-26T04:05:58.848Z,-1.57
2019-01-26T04:06:58.883Z,-1.60
2019-01-26T04:07:59.076Z,-1.62
2019-01-26T04:08:58.857Z,-1.59
2019-01-26T04:09:58.874Z,-1.66
2019-01-26T04:10:58.799Z,-1.66
2019-01-26T04:11:58.848Z,-1.56
2019-01-26T04:12:59.055Z,-1.56
2019-01-26T04:13:58.760Z,-1.56
2019-01-26T04:14:58.783Z,-1.64
2019-01-26T04:15:58.742Z,-1.60
2019-01-26T04:16:58.742Z,-1.56
2019-01-26T04:17:59.002Z,-1.56
2019-01-26T04:18:58.743Z,-1.53
2019-01-26T04:19:58.678Z,-1.57
2019-01-26T04:20:59.448Z,-1.57
2019-01-26T04:21:58.705Z,-1.54
2019-01-26T04:22:58.968Z,-1.63
2019-01-26T04:23:58.665Z,-1.57
2019-01-26T04:24:58.643Z,-1.60
2019-01-26T04:25:58.680Z,-1.51
2019-01-26T04:26:58.658Z,-1.57
2019-01-26T04:27:58.586Z,-1.60
2019-01-26T04:28:58.473Z,-1.49
2019-01-26T04:29:58.476Z,-1.54
2019-01-26T04:30:58.462Z,-1.43
2019-01-26T04:31:58.452Z,-1.59
2019-01-26T04:32:58.436Z,-1.62
2019-01-26T04:33:58.468Z,-1.54
2019-01-26T04:34:58.428Z,-1.53
2019-01-26T04:35:58.410Z,-1.49
2019-01-26T04:36:58.404Z,-1.57
2019-01-26T04:37:58.391Z,-1.60
2019-01-26T04:38:58.431Z,-1.56
2019-01-26T04:39:58.374Z,-1.63
2019-01-26T04:40:58.354Z,-1.62
2019-01-26T04:41:58.349Z,-1.60
2019-01-26T04:42:58.350Z,-1.60
2019-01-26T04:43:58.374Z,-1.66
2019-01-26T04:44:58.333Z,-1.72
2019-01-26T04:45:58.304Z,-1.72
2019-01-26T04:46:58.304Z,-1.64
2019-01-26T04:47:58.295Z,-1.63
2019-01-26T04:48:58.324Z,-1.69
2019-01-26T04:49:58.273Z,-1.80
2019-01-26T04:50:58.251Z,-1.70
2019-01-26T04:51:58.239Z,-1.78
2019-01-26T04:52:58.243Z,-1.82
2019-01-26T04:53:58.301Z,-1.80
2019-01-26T04:54:58.219Z,-1.81
2019-01-26T04:55:58.348Z,-1.77
2019-01-26T04:56:58.193Z,-1.80
2019-01-26T04:57:58.176Z,-1.75
2019-01-26T04:58:58.206Z,-1.84
2019-01-26T04:59:58.165Z,-1.75
2019-01-26T05:00:58.155Z,-1.78
2019-01-26T05:01:58.136Z,-1.81
2019-01-26T05:02:58.134Z,-1.78
2019-01-26T05:03:58.134Z,-1.80
2019-01-26T05:04:58.097Z,-1.80
2019-01-26T05:05:58.122Z,-1.82
2019-01-26T05:06:58.128Z,-1.81
2019-01-26T05:07:58.073Z,-1.81
2019-01-26T05:08:58.064Z,-1.77
2019-01-26T05:09:58.066Z,-1.78
2019-01-26T05:11:28.875Z,-1.81
2019-01-26T05:11:58.058Z,-1.80
2019-01-26T05:12:58.021Z,-1.74
2019-01-26T05:13:58.043Z,-1.78
2019-01-26T05:14:57.993Z,-1.80
2019-01-26T05:15:57.982Z,-1.72
2019-01-26T05:16:57.983Z,-1.84
2019-01-26T05:17:57.971Z,-1.78
2019-01-26T05:18:57.985Z,-1.70
2019-01-26T05:19:57.959Z,-1.74
2019-01-26T05:20:57.937Z,-1.78
2019-01-26T05:21:57.922Z,-1.75
2019-01-26T05:22:57.924Z,-1.81
2019-01-26T05:23:57.950Z,-1.78
2019-01-26T05:24:57.898Z,-1.77
2019-01-26T05:25:57.889Z,-1.72
2019-01-26T05:26:57.875Z,-1.78
2019-01-26T05:27:57.862Z,-1.77
2019-01-26T05:28:57.891Z,-1.74
2019-01-26T05:29:57.843Z,-1.75
2019-01-26T05:30:57.840Z,-1.74
2019-01-26T05:31:57.832Z,-1.66
2019-01-26T05:32:57.820Z,-1.77
2019-01-26T05:33:57.850Z,-1.69
2019-01-26T05:34:57.799Z,-1.75
2019-01-26T05:35:57.795Z,-1.78
2019-01-26T05:36:57.773Z,-1.70
2019-01-26T05:37:57.765Z,-1.80
2019-01-26T05:38:57.787Z,-1.70
2019-01-26T05:39:57.752Z,-1.75
2019-01-26T05:40:57.746Z,-1.66
2019-01-26T05:41:57.735Z,-1.74
2019-01-26T05:42:57.729Z,-1.69
2019-01-26T05:43:57.757Z,-1.75
2019-01-26T05:44:57.695Z,-1.75
2019-01-26T05:45:57.721Z,-1.74
2019-01-26T05:46:57.684Z,-1.70
2019-01-26T05:47:57.676Z,-1.67
2019-01-26T05:48:57.722Z,-1.72
2019-01-26T05:49:57.646Z,-1.70
2019-01-26T05:50:57.642Z,-1.72
2019-01-26T05:51:57.637Z,-1.72
2019-01-26T05:52:57.619Z,-1.75
2019-01-26T05:53:57.604Z,-1.70
2019-01-26T05:54:57.630Z,-1.69
2019-01-26T05:55:57.589Z,-1.67
2019-01-26T05:56:57.595Z,-1.69
2019-01-26T05:57:57.568Z,-1.69
2019-01-26T05:58:57.923Z,-1.72
2019-01-26T05:59:57.583Z,-1.66
2019-01-26T06:00:57.541Z,-1.70
2019-01-26T06:01:57.528Z,-1.72
2019-01-26T06:02:57.514Z,-1.63
2019-01-26T06:03:57.523Z,-1.60
2019-01-26T06:04:57.537Z,-1.60
2019-01-26T06:05:57.498Z,-1.60
2019-01-26T06:06:57.484Z,-1.60
2019-01-26T06:07:57.471Z,-1.57
2019-01-26T06:08:57.463Z,-1.62
2019-01-26T06:09:57.472Z,-1.56
2019-01-26T06:10:57.433Z,-1.48
2019-01-26T06:11:57.431Z,-1.53
2019-01-26T06:12:58.809Z,-1.56
2019-01-26T06:13:57.413Z,-1.51
2019-01-26T06:14:57.437Z,-1.45
2019-01-26T06:15:57.398Z,-1.48
2019-01-26T06:16:57.376Z,-1.49
2019-01-26T06:17:57.413Z,-1.49
2019-01-26T06:18:57.365Z,-1.45
2019-01-26T06:19:57.386Z,-1.45
2019-01-26T06:20:57.335Z,-1.51
2019-01-26T06:21:57.332Z,-1.43
2019-01-26T06:22:57.322Z,-1.43
2019-01-26T06:23:57.304Z,-1.48
2019-01-26T06:24:57.324Z,-1.46
2019-01-26T06:25:57.292Z,-1.51
2019-01-26T06:26:57.277Z,-1.41
2019-01-26T06:27:57.300Z,-1.36
2019-01-26T06:28:57.267Z,-1.46
2019-01-26T06:29:57.249Z,-1.36
2019-01-26T06:30:57.248Z,-1.36
2019-01-26T06:31:57.236Z,-1.48
2019-01-26T06:32:57.220Z,-1.33
2019-01-26T06:33:57.248Z,-1.28
2019-01-26T06:34:57.205Z,-1.39
2019-01-26T06:35:57.192Z,-1.36
2019-01-26T06:36:57.199Z,-1.33
2019-01-26T06:37:57.213Z,-1.39
2019-01-26T06:38:57.195Z,-1.39
2019-01-26T06:39:57.192Z,-1.38
2019-01-26T06:40:57.219Z,-1.35
2019-01-26T06:41:57.129Z,-1.36
2019-01-26T06:42:57.135Z,-1.38
2019-01-26T06:43:57.139Z,-1.36
2019-01-26T06:44:58.966Z,-1.31
2019-01-26T06:45:57.095Z,-1.35
2019-01-26T06:46:57.078Z,-1.39
2019-01-26T06:48:02.101Z,-1.31
2019-01-26T06:48:58.100Z,-1.31
2019-01-26T06:49:57.391Z,-1.27
2019-01-26T06:50:57.044Z,-1.35
2019-01-26T06:51:57.056Z,-1.33
2019-01-26T06:52:57.023Z,-1.35
2019-01-26T06:53:57.003Z,-1.24
2019-01-26T06:54:57.005Z,-1.33
2019-01-26T06:55:57.017Z,-1.28
2019-01-26T06:56:56.983Z,-1.24
2019-01-26T06:57:56.997Z,-1.35
2019-01-26T06:58:56.960Z,-1.27
2019-01-26T06:59:56.944Z,-1.21
2019-01-26T07:00:56.939Z,-1.15
2019-01-26T07:01:56.965Z,-1.15
2019-01-26T07:02:56.915Z,-1.15
2019-01-26T07:03:56.913Z,-1.25
2019-01-26T07:04:56.924Z,-1.20
2019-01-26T07:05:56.887Z,-1.17
2019-01-26T07:06:56.884Z,-1.21
2019-01-26T07:07:56.869Z,-1.15
2019-01-26T07:08:56.850Z,-1.17
2019-01-26T07:09:56.878Z,-1.10
2019-01-26T07:10:56.847Z,-1.18
2019-01-26T07:11:56.832Z,-1.10
2019-01-26T07:12:56.813Z,-1.02
2019-01-26T07:13:56.805Z,-1.09
2019-01-26T07:14:56.835Z,-1.07
2019-01-26T07:15:56.796Z,-1.07
2019-01-26T07:16:56.787Z,-1.06
2019-01-26T07:17:56.764Z,-1.07
2019-01-26T07:18:56.754Z,-1.02
2019-01-26T07:19:56.789Z,-1.05
2019-01-26T07:20:56.747Z,-1.10
2019-01-26T07:21:56.725Z,-1.06
2019-01-26T07:22:56.724Z,-1.06
2019-01-26T07:23:56.707Z,-1.00
2019-01-26T07:24:56.743Z,-1.03
2019-01-26T07:25:56.683Z,-1.03
2019-01-26T07:26:56.670Z,-0.99
2019-01-26T07:27:56.664Z,-0.91
2019-01-26T07:28:56.654Z,-0.91
2019-01-26T07:29:56.680Z,-0.95
2019-01-26T07:30:56.634Z,-1.00
2019-01-26T07:31:56.626Z,-0.92
2019-01-26T07:32:56.626Z,-0.91
2019-01-26T07:33:56.600Z,-0.86
2019-01-26T07:34:56.624Z,-0.91
2019-01-26T07:35:56.586Z,-0.83
2019-01-26T07:36:56.573Z,-0.84
2019-01-26T07:37:56.572Z,-0.86
2019-01-26T07:38:56.562Z,-0.86
2019-01-26T07:39:56.578Z,-0.87
2019-01-26T07:40:56.530Z,-0.89
2019-01-26T07:41:56.514Z,-0.77
2019-01-26T07:42:56.525Z,-0.86
2019-01-26T07:43:56.502Z,-0.73
2019-01-26T07:44:56.493Z,-0.70
2019-01-26T07:45:56.593Z,-0.70
2019-01-26T07:46:56.473Z,-0.73
2019-01-26T07:47:56.469Z,-0.69
2019-01-26T07:48:56.442Z,-0.72
2019-01-26T07:49:56.437Z,-0.62
2019-01-26T07:50:56.457Z,-0.57
2019-01-26T07:51:56.427Z,-0.52
2019-01-26T07:52:56.409Z,-0.57
2019-01-26T07:53:56.401Z,-0.62
2019-01-26T07:54:56.384Z,-0.54
2019-01-26T07:55:56.418Z,-0.54
2019-01-26T07:56:56.378Z,-0.51
2019-01-26T07:57:56.356Z,-0.54
2019-01-26T07:58:56.344Z,-0.50
2019-01-26T07:59:56.339Z,-0.42
2019-01-26T08:00:56.356Z,-0.48
2019-01-26T08:01:56.319Z,-0.45
2019-01-26T08:02:56.303Z,-0.42
2019-01-26T08:03:56.293Z,-0.44
2019-01-26T08:04:56.293Z,-0.41
2019-01-26T08:05:56.899Z,-0.36
2019-01-26T08:07:00.355Z,-0.37
2019-01-26T08:08:18.659Z,-0.37
2019-01-26T08:09:19.858Z,-0.30
2019-01-26T08:09:56.344Z,-0.26
2019-01-26T08:10:56.900Z,-0.29
2019-01-26T08:11:56.921Z,-0.29
2019-01-26T08:12:56.457Z,-0.36
2019-01-26T08:13:58.862Z,-0.34
2019-01-26T08:14:56.191Z,-0.27
2019-01-26T08:15:56.203Z,-0.24
2019-01-26T08:16:56.168Z,-0.36
2019-01-26T08:17:56.859Z,-0.34
2019-01-26T08:18:56.895Z,-0.33
2019-01-26T08:19:56.946Z,-0.26
2019-01-26T08:20:57.895Z,-0.16
2019-01-26T08:21:59.133Z,-0.18
2019-01-26T08:22:57.887Z,-0.24
2019-01-26T08:23:56.108Z,-0.27
2019-01-26T08:24:56.085Z,-0.16
2019-01-26T08:25:56.414Z,-0.18
2019-01-26T08:26:56.866Z,-0.19
2019-01-26T08:27:56.863Z,-0.15
2019-01-26T08:28:56.868Z,-0.27
2019-01-26T08:29:56.180Z,-0.30
2019-01-26T08:30:57.908Z,-0.15
2019-01-26T08:31:56.858Z,-0.15
2019-01-26T08:34:19.277Z,-0.11
2019-01-26T08:35:19.262Z,-0.12
2019-01-26T08:36:21.035Z,-0.11
2019-01-26T08:37:19.989Z,-0.09
2019-01-26T08:38:19.224Z,-0.08
2019-01-26T08:39:19.224Z,-0.13
2019-01-26T08:40:19.214Z,-0.13
2019-01-26T08:41:19.219Z,-0.08
2019-01-26T08:42:19.200Z,-0.06
2019-01-26T08:43:19.270Z,-0.08
2019-01-26T08:44:20.299Z,0.02
2019-01-26T08:45:23.630Z,-0.06
2019-01-26T08:46:22.017Z,-0.04
2019-01-26T08:47:19.135Z,-0.04
2019-01-26T08:48:31.201Z,-0.11
2019-01-26T08:49:20.121Z,0.05
2019-01-26T08:50:22.001Z,0.02
2019-01-26T08:51:19.139Z,0.03
2019-01-26T08:52:19.100Z,0.07
2019-01-26T08:53:20.000Z,0.06
2019-01-26T08:54:21.495Z,0.00
2019-01-26T08:55:20.006Z,-0.04
2019-01-26T08:56:20.044Z,0.06
2019-01-26T08:57:20.099Z,0.00
2019-01-26T08:58:23.173Z,0.03
2019-01-26T08:59:23.730Z,0.00
2019-01-26T09:00:19.064Z,0.07
2019-01-26T09:01:19.041Z,0.07
2019-01-26T09:02:25.407Z,0.13
2019-01-26T09:03:21.505Z,0.00
2019-01-26T09:04:19.014Z,0.16
2019-01-26T09:05:18.963Z,0.23
2019-01-26T09:06:20.599Z,0.21
2019-01-26T09:07:25.524Z,0.18
2019-01-26T09:08:19.504Z,0.21
2019-01-26T09:09:46.861Z,0.18
2019-01-26T09:10:35.135Z,0.18
2019-01-26T09:11:20.554Z,0.20
2019-01-26T09:12:18.907Z,0.18
2019-01-26T09:13:18.908Z,0.18
2019-01-26T09:14:18.878Z,0.21
2019-01-26T09:15:18.863Z,0.27
2019-01-26T09:16:19.559Z,0.27
2019-01-26T09:17:19.504Z,0.15
2019-01-26T09:18:26.466Z,0.10
2019-01-26T09:19:19.959Z,0.18
2019-01-26T09:20:18.877Z,0.27
2019-01-26T09:21:18.833Z,0.12
2019-01-26T09:22:18.789Z,0.24
2019-01-26T09:23:18.781Z,0.18
2019-01-26T09:24:21.503Z,0.18
2019-01-26T09:25:18.761Z,0.13
2019-01-26T09:26:18.779Z,0.30
2019-01-26T09:27:18.736Z,0.30
2019-01-26T09:28:18.728Z,0.30
2019-01-26T09:29:19.498Z,0.30
2019-01-26T09:30:19.516Z,0.27
2019-01-26T09:31:20.551Z,0.33
2019-01-26T09:32:20.561Z,0.27
2019-01-26T09:33:21.501Z,0.30
2019-01-26T09:34:18.704Z,0.28
2019-01-26T09:35:18.655Z,0.36
2019-01-26T09:36:18.649Z,0.41
2019-01-26T09:37:21.504Z,0.39
2019-01-26T09:38:18.627Z,0.36
2019-01-26T09:39:18.651Z,0.34
2019-01-26T09:40:19.511Z,0.31
2019-01-26T09:41:21.500Z,0.34
2019-01-26T09:42:18.581Z,0.30
2019-01-26T09:43:18.575Z,0.33
2019-01-26T09:44:21.962Z,0.27
2019-01-26T09:45:27.020Z,0.25
2019-01-26T09:46:18.557Z,0.30
2019-01-26T09:47:18.533Z,0.30
2019-01-26T09:48:18.681Z,0.24
2019-01-26T09:49:19.510Z,0.16
2019-01-26T09:50:19.169Z,0.27
2019-01-26T09:51:20.046Z,0.24
2019-01-26T09:52:21.001Z,0.24
2019-01-26T09:53:23.551Z,0.21
2019-01-26T09:54:18.524Z,0.12
2019-01-26T09:55:18.451Z,0.13
2019-01-26T09:56:18.449Z,0.20
2019-01-26T09:57:19.041Z,0.12
2019-01-26T09:58:20.106Z,0.18
2019-01-26T09:59:20.033Z,0.16
2019-01-26T10:00:55.486Z,0.15
2019-01-26T10:01:33.003Z,0.25
2019-01-26T10:02:21.002Z,0.34
2019-01-26T10:03:18.403Z,0.25
2019-01-26T10:04:18.364Z,0.25
2019-01-26T10:05:18.355Z,0.27
2019-01-26T10:06:19.007Z,0.38
2019-01-26T10:07:18.333Z,0.30
2019-01-26T10:08:18.323Z,0.31
2019-01-26T10:09:18.328Z,0.30
2019-01-26T10:10:19.006Z,0.41
2019-01-26T10:11:19.001Z,0.38
2019-01-26T10:12:18.971Z,0.39
2019-01-26T10:13:20.125Z,0.30
2019-01-26T10:14:20.046Z,0.36
2019-01-26T10:15:18.253Z,0.41
2019-01-26T10:16:18.237Z,0.42
2019-01-26T10:17:18.221Z,0.43
2019-01-26T10:18:19.005Z,0.38
2019-01-26T10:19:19.019Z,0.43
2019-01-26T10:20:18.229Z,0.39
2019-01-26T10:21:18.210Z,0.49
2019-01-26T10:22:19.046Z,0.51
2019-01-26T10:23:18.168Z,0.53
2019-01-26T10:24:18.165Z,0.58
2019-01-26T10:25:18.171Z,0.49
2019-01-26T10:26:19.019Z,0.70
2019-01-26T10:27:18.177Z,0.61
2019-01-26T10:28:18.146Z,0.61
2019-01-26T10:29:19.008Z,0.67
2019-01-26T10:30:19.001Z,0.62
2019-01-26T10:31:18.082Z,0.79
2019-01-26T10:32:18.109Z,0.78
2019-01-26T10:33:18.996Z,0.85
2019-01-26T10:34:18.997Z,0.83
2019-01-26T10:35:18.047Z,0.79
2019-01-26T10:36:18.081Z,0.85
2019-01-26T10:37:19.036Z,0.85
2019-01-26T10:38:19.011Z,0.90
2019-01-26T10:39:18.008Z,0.90
2019-01-26T10:40:18.001Z,0.96
2019-01-26T10:41:18.502Z,0.85
2019-01-26T10:42:19.535Z,0.85
2019-01-26T10:43:17.970Z,0.80
2019-01-26T10:44:17.963Z,0.88
2019-01-26T10:45:18.515Z,0.83
2019-01-26T10:46:18.540Z,0.98
2019-01-26T10:47:17.949Z,0.89
2019-01-26T10:48:18.035Z,0.98
2019-01-26T10:49:18.498Z,0.98
2019-01-26T10:50:24.690Z,1.00
2019-01-26T10:51:17.884Z,1.03
2019-01-26T10:52:18.561Z,1.06
2019-01-26T10:53:18.495Z,1.15
2019-01-26T10:54:24.602Z,1.10
2019-01-26T10:55:17.861Z,1.15
2019-01-26T10:56:18.495Z,1.04
2019-01-26T10:57:18.532Z,1.01
2019-01-26T10:58:17.799Z,1.04
2019-01-26T10:59:18.502Z,1.14
2019-01-26T11:00:24.596Z,1.15
2019-01-26T11:01:18.497Z,1.21
2019-01-26T11:02:19.539Z,1.28
2019-01-26T11:03:24.518Z,1.33
2019-01-26T11:05:31.145Z,1.39
2019-01-26T11:06:31.128Z,1.58
2019-01-26T11:07:32.792Z,1.68
2019-01-26T11:08:31.121Z,1.69
2019-01-26T11:09:31.100Z,1.65
2019-01-26T11:10:31.095Z,1.68
2019-01-26T11:11:32.786Z,1.80
2019-01-26T11:12:31.096Z,1.90
2019-01-26T11:13:31.073Z,1.90
2019-01-26T11:14:31.043Z,1.89
2019-01-26T11:15:32.480Z,1.89
2019-01-26T11:16:31.028Z,2.12
2019-01-26T11:17:31.103Z,2.13
2019-01-26T11:18:31.012Z,2.09
2019-01-26T11:19:30.998Z,2.16
2019-01-26T11:21:45.093Z,1.93
2019-01-26T11:22:45.976Z,1.98
2019-01-26T11:23:45.950Z,2.02
2019-01-26T11:24:45.030Z,2.02
2019-01-26T11:25:45.024Z,2.02
2019-01-26T11:26:49.435Z,2.12
2019-01-26T11:27:46.012Z,2.06
2019-01-26T11:28:45.027Z,1.97
2019-01-26T11:29:45.950Z,1.93
2019-01-26T11:30:45.541Z,1.78
2019-01-26T11:31:48.945Z,1.78
2019-01-26T11:32:44.950Z,1.72
2019-01-26T11:33:45.519Z,1.73
2019-01-26T11:34:45.482Z,1.64
2019-01-26T11:36:05.967Z,1.61
2019-01-26T11:36:45.478Z,1.57
2019-01-26T11:39:01.781Z,1.40
2019-01-26T11:40:02.890Z,1.52
2019-01-26T11:41:03.368Z,1.39
2019-01-26T11:42:03.383Z,1.43
2019-01-26T11:43:01.758Z,1.46
2019-01-26T11:44:04.386Z,1.52
2019-01-26T11:45:01.829Z,1.52
2019-01-26T11:46:03.479Z,1.55
2019-01-26T11:47:01.668Z,1.62
2019-01-26T11:48:01.690Z,1.62
2019-01-26T11:49:01.705Z,1.50
2019-01-26T11:50:01.720Z,1.57
2019-01-26T11:51:02.569Z,1.58
2019-01-26T11:52:03.371Z,1.57
2019-01-26T11:53:03.444Z,1.64
2019-01-26T11:54:04.400Z,1.64
2019-01-26T11:55:01.598Z,1.68
2019-01-26T11:56:17.988Z,1.64
2019-01-26T11:57:04.393Z,1.80
2019-01-26T11:58:01.697Z,1.91
2019-01-26T11:59:01.549Z,1.89
2019-01-26T12:00:02.851Z,2.04
2019-01-26T12:01:04.389Z,2.22
2019-01-26T12:02:01.531Z,2.22
2019-01-26T12:03:18.030Z,2.17
2019-01-26T12:04:38.961Z,2.09
2019-01-26T12:05:01.498Z,2.16
2019-01-26T12:06:01.494Z,2.26
2019-01-26T12:07:02.435Z,2.17
2019-01-26T12:08:01.494Z,2.08
2019-01-26T12:09:01.444Z,2.08
2019-01-26T12:10:01.440Z,2.23
2019-01-26T12:11:01.428Z,2.19
2019-01-26T12:12:01.457Z,2.19
2019-01-26T12:13:02.431Z,2.28
2019-01-26T12:15:32.678Z,2.40
2019-01-26T12:16:32.683Z,2.35
2019-01-26T12:17:32.656Z,2.31
2019-01-26T12:18:32.679Z,2.23
2019-01-26T12:19:32.640Z,2.28
2019-01-26T12:20:32.621Z,2.27
2019-01-26T12:21:32.620Z,2.19
2019-01-26T12:22:32.602Z,2.27
2019-01-26T12:23:32.644Z,2.15
2019-01-26T12:24:32.581Z,2.17
2019-01-26T12:25:32.571Z,2.09
2019-01-26T12:26:32.555Z,1.89
2019-01-26T12:27:32.556Z,1.98
2019-01-26T12:28:32.577Z,1.89
2019-01-26T12:29:32.529Z,1.98
2019-01-26T12:30:32.524Z,1.94
2019-01-26T12:31:32.510Z,1.91
2019-01-26T12:32:32.624Z,1.98
2019-01-26T12:33:32.531Z,1.98
2019-01-26T12:34:32.475Z,2.06
2019-01-26T12:35:32.482Z,2.01
2019-01-26T12:36:32.489Z,1.91
2019-01-26T12:37:32.456Z,1.90
2019-01-26T12:38:32.475Z,1.94
2019-01-26T12:39:32.436Z,1.91
2019-01-26T12:40:32.413Z,2.08
2019-01-26T12:41:32.413Z,2.06
2019-01-26T12:42:32.401Z,2.09
2019-01-26T12:43:32.436Z,2.08
2019-01-26T12:44:32.395Z,2.13
2019-01-26T12:45:32.365Z,2.15
2019-01-26T12:46:32.356Z,2.12
2019-01-26T12:47:32.353Z,2.22
2019-01-26T12:48:32.385Z,2.17
2019-01-26T12:49:32.332Z,2.13
2019-01-26T12:50:32.324Z,2.16
2019-01-26T12:51:32.311Z,2.28
2019-01-26T12:52:32.294Z,2.35
2019-01-26T12:53:32.315Z,2.33
2019-01-26T12:54:32.274Z,2.45
2019-01-26T12:55:32.263Z,2.49
2019-01-26T12:56:32.287Z,2.61
2019-01-26T12:57:32.238Z,2.63
2019-01-26T12:58:32.228Z,2.69
2019-01-26T12:59:32.235Z,2.58
2019-01-26T13:00:32.445Z,2.69
2019-01-26T13:01:32.205Z,2.77
2019-01-26T13:02:32.203Z,2.79
2019-01-26T13:03:32.213Z,2.61
2019-01-26T13:04:32.223Z,2.58
2019-01-26T13:05:32.192Z,2.56
2019-01-26T13:06:32.157Z,2.61